createdAt,value
2023-06-27T00:01:31.463Z,16.01
2023-06-27T00:04:01.880Z,16.02
2023-06-27T00:06:28.997Z,16.05
2023-06-27T00:08:56.237Z,16.05
2023-06-27T00:11:23.149Z,16.04
2023-06-27T00:13:50.448Z,16.02
2023-06-27T00:16:18.772Z,16.05
2023-06-27T00:18:49.949Z,16.04
2023-06-27T00:21:16.960Z,16.08
2023-06-27T00:23:44.929Z,16.10
2023-06-27T00:26:13.500Z,16.10
2023-06-27T00:28:40.898Z,16.12
2023-06-27T00:31:08.159Z,16.15
2023-06-27T00:33:35.440Z,16.15
2023-06-27T00:36:02.155Z,16.13
2023-06-27T00:38:29.132Z,16.13
2023-06-27T00:40:55.922Z,16.13
2023-06-27T00:43:22.788Z,16.12
2023-06-27T00:45:51.293Z,16.12
2023-06-27T00:48:19.091Z,16.15
2023-06-27T00:50:46.513Z,16.10
2023-06-27T00:53:13.567Z,16.10
2023-06-27T00:55:42.422Z,16.12
2023-06-27T00:58:12.168Z,16.06
2023-06-27T01:00:39.061Z,16.04
2023-06-27T01:03:06.149Z,16.01
2023-06-27T01:05:33.457Z,15.98
2023-06-27T01:08:12.384Z,15.91
2023-06-27T01:11:13.737Z,15.88
2023-06-27T01:13:47.958Z,15.89
2023-06-27T01:16:14.859Z,15.87
2023-06-27T01:18:43.056Z,15.91
2023-06-27T01:21:09.709Z,15.92
2023-06-27T01:23:51.765Z,15.88
2023-06-27T01:26:18.559Z,15.87
2023-06-27T01:28:45.503Z,15.87
2023-06-27T01:31:16.003Z,15.81
2023-06-27T01:33:45.401Z,15.82
2023-06-27T01:36:27.737Z,15.85
2023-06-27T01:39:07.653Z,15.82
2023-06-27T01:41:34.519Z,15.82
2023-06-27T01:44:03.223Z,15.85
2023-06-27T01:46:30.556Z,15.85
2023-06-27T01:48:57.843Z,15.84
2023-06-27T01:51:24.799Z,15.78
2023-06-27T01:53:51.882Z,15.77
2023-06-27T01:56:19.166Z,15.71
2023-06-27T01:58:45.924Z,15.64
2023-06-27T02:01:12.795Z,15.62
2023-06-27T02:03:39.764Z,15.58
2023-06-27T02:06:06.612Z,15.57
2023-06-27T02:08:33.451Z,15.54
2023-06-27T02:11:00.246Z,15.47
2023-06-27T02:13:27.342Z,15.47
2023-06-27T02:15:54.218Z,15.43
2023-06-27T02:18:21.255Z,15.34
2023-06-27T02:20:48.181Z,15.29
2023-06-27T02:23:14.981Z,15.18
2023-06-27T02:25:44.527Z,15.10
2023-06-27T02:28:11.452Z,15.07
2023-06-27T02:30:38.451Z,15.10
2023-06-27T02:33:05.587Z,15.10
2023-06-27T02:35:32.467Z,15.09
2023-06-27T02:37:59.257Z,15.06
2023-06-27T02:40:26.366Z,15.07
2023-06-27T02:42:53.197Z,15.09
2023-06-27T02:45:20.002Z,15.07
2023-06-27T02:47:46.853Z,15.04
2023-06-27T02:50:13.898Z,15.03
2023-06-27T02:52:41.603Z,15.02
2023-06-27T02:55:09.112Z,15.03
2023-06-27T02:57:35.965Z,15.00
2023-06-27T03:00:02.952Z,14.96
2023-06-27T03:02:30.820Z,14.96
2023-06-27T03:04:57.726Z,14.92
2023-06-27T03:07:24.729Z,14.85
2023-06-27T03:09:51.660Z,14.86
2023-06-27T03:12:18.611Z,14.82
2023-06-27T03:14:45.597Z,14.82
2023-06-27T03:17:12.454Z,14.81
2023-06-27T03:19:44.841Z,14.83
2023-06-27T03:22:12.330Z,14.83
2023-06-27T03:24:39.224Z,14.83
2023-06-27T03:27:06.400Z,14.83
2023-06-27T03:29:33.252Z,14.82
2023-06-27T03:32:00.721Z,14.81
2023-06-27T03:34:27.672Z,14.79
2023-06-27T03:36:54.504Z,14.79
2023-06-27T03:39:21.281Z,14.82
2023-06-27T03:41:48.246Z,14.79
2023-06-27T03:44:15.340Z,14.76
2023-06-27T03:46:42.702Z,14.78
2023-06-27T03:49:09.944Z,14.78
2023-06-27T03:51:41.083Z,14.75
2023-06-27T03:54:08.217Z,14.79
2023-06-27T03:56:35.146Z,14.79
2023-06-27T03:59:01.996Z,14.76
2023-06-27T04:01:28.876Z,14.82
2023-06-27T04:03:55.804Z,14.82
2023-06-27T04:06:23.271Z,14.79
2023-06-27T04:08:50.525Z,14.82
2023-06-27T04:11:17.789Z,14.82
2023-06-27T04:13:44.584Z,14.82
2023-06-27T04:16:11.422Z,14.85
2023-06-27T04:18:39.095Z,14.96
2023-06-27T04:21:06.178Z,15.02
2023-06-27T04:23:33.142Z,15.07
2023-06-27T04:26:09.030Z,15.14
2023-06-27T04:28:36.039Z,15.16
2023-06-27T04:31:03.303Z,15.23
2023-06-27T04:33:31.914Z,15.34
2023-06-27T04:36:02.884Z,15.47
2023-06-27T04:38:31.808Z,15.60
2023-06-27T04:40:58.798Z,15.71
2023-06-27T04:43:28.532Z,15.82
2023-06-27T04:45:55.562Z,15.88
2023-06-27T04:48:22.519Z,16.06
2023-06-27T04:50:49.651Z,16.15
2023-06-27T04:53:16.603Z,16.29
2023-06-27T04:55:44.350Z,16.43
2023-06-27T04:58:12.804Z,16.50
2023-06-27T05:00:39.878Z,16.59
2023-06-27T05:03:07.262Z,16.66
2023-06-27T05:05:35.362Z,16.70
2023-06-27T05:08:03.166Z,16.77
2023-06-27T05:10:30.277Z,16.83
2023-06-27T05:12:58.377Z,16.88
2023-06-27T05:15:25.095Z,16.89
2023-06-27T05:18:07.585Z,16.84
2023-06-27T05:20:34.562Z,16.81
2023-06-27T05:23:02.690Z,16.84
2023-06-27T05:25:31.934Z,16.84
2023-06-27T05:27:59.091Z,16.88
2023-06-27T05:30:27.293Z,16.94
2023-06-27T05:32:54.275Z,17.00
2023-06-27T05:35:22.264Z,17.05
2023-06-27T05:37:49.557Z,17.12
2023-06-27T05:40:16.633Z,17.14
2023-06-27T05:42:43.598Z,17.15
2023-06-27T05:45:11.018Z,17.22
2023-06-27T05:47:38.044Z,17.36
2023-06-27T05:50:05.442Z,17.56
2023-06-27T05:52:33.505Z,17.83
2023-06-27T05:55:00.586Z,18.11
2023-06-27T05:57:27.549Z,18.32
2023-06-27T05:59:54.543Z,18.62
2023-06-27T06:02:21.829Z,18.93
2023-06-27T06:04:48.710Z,19.15
2023-06-27T06:07:15.792Z,19.50
2023-06-27T06:09:42.732Z,19.75
2023-06-27T06:12:10.065Z,20.02
2023-06-27T06:14:36.993Z,20.27
2023-06-27T06:17:04.390Z,20.55
2023-06-27T06:19:31.302Z,20.74
2023-06-27T06:21:58.343Z,20.86
2023-06-27T06:24:25.080Z,21.07
2023-06-27T06:26:55.323Z,21.32
2023-06-27T06:29:22.403Z,21.58
2023-06-27T06:31:49.275Z,21.67
2023-06-27T06:34:16.180Z,21.57
2023-06-27T06:36:43.139Z,21.42
2023-06-27T06:39:09.996Z,21.26
2023-06-27T06:41:36.852Z,21.07
2023-06-27T06:44:03.728Z,21.03
2023-06-27T06:46:30.802Z,21.02
2023-06-27T06:48:57.715Z,21.06
2023-06-27T06:51:25.225Z,21.06
2023-06-27T06:53:52.002Z,20.96
2023-06-27T06:56:18.850Z,20.89
2023-06-27T06:58:45.638Z,20.84
2023-06-27T07:01:12.386Z,20.79
2023-06-27T07:03:39.175Z,20.79
2023-06-27T07:06:06.059Z,20.77
2023-06-27T07:08:33.110Z,20.86
2023-06-27T07:11:00.229Z,21.20
2023-06-27T07:13:27.723Z,21.50
2023-06-27T07:15:54.659Z,21.85
2023-06-27T07:18:21.610Z,22.18
2023-06-27T07:20:48.515Z,22.29
2023-06-27T07:23:17.249Z,22.56
2023-06-27T07:25:44.221Z,22.77
2023-06-27T07:28:11.404Z,22.71
2023-06-27T07:30:38.507Z,22.64
2023-06-27T07:33:05.786Z,22.70
2023-06-27T07:35:33.374Z,22.88
2023-06-27T07:38:00.409Z,22.97
2023-06-27T07:40:27.632Z,22.77
2023-06-27T07:42:54.915Z,22.70
2023-06-27T07:45:22.072Z,22.93
2023-06-27T07:47:48.865Z,23.03
2023-06-27T07:50:15.655Z,23.04
2023-06-27T07:52:44.344Z,23.12
2023-06-27T07:55:11.700Z,23.22
2023-06-27T07:57:38.778Z,23.29
2023-06-27T08:00:06.249Z,23.37
2023-06-27T08:02:33.156Z,23.51
2023-06-27T08:05:00.031Z,23.74
2023-06-27T08:07:27.166Z,23.96
2023-06-27T08:09:54.229Z,24.04
2023-06-27T08:12:21.697Z,24.09
2023-06-27T08:14:51.295Z,24.06
2023-06-27T08:17:18.601Z,23.90
2023-06-27T08:19:45.404Z,23.73
2023-06-27T08:22:13.783Z,23.67
2023-06-27T08:24:41.647Z,23.79
2023-06-27T08:27:09.604Z,23.96
2023-06-27T08:29:36.253Z,24.04
2023-06-27T08:32:03.416Z,24.04
2023-06-27T08:34:33.426Z,24.13
2023-06-27T08:37:00.385Z,24.31
2023-06-27T08:39:27.782Z,24.48
2023-06-27T08:41:54.861Z,24.71
2023-06-27T08:44:22.080Z,24.80
2023-06-27T08:46:49.244Z,24.92
2023-06-27T08:49:25.530Z,24.79
2023-06-27T08:51:52.843Z,24.41
2023-06-27T08:54:24.422Z,24.07
2023-06-27T08:56:51.555Z,23.79
2023-06-27T08:59:20.902Z,23.59
2023-06-27T09:01:48.406Z,23.46
2023-06-27T09:04:15.482Z,23.32
2023-06-27T09:06:42.345Z,23.21
2023-06-27T09:09:09.296Z,23.15
2023-06-27T09:11:36.748Z,22.97
2023-06-27T09:14:04.168Z,22.90
2023-06-27T09:16:31.137Z,22.87
2023-06-27T09:18:58.573Z,22.80
2023-06-27T09:21:25.728Z,22.66
2023-06-27T09:23:52.890Z,22.66
2023-06-27T09:26:19.757Z,22.59
2023-06-27T09:28:51.095Z,22.57
2023-06-27T09:31:19.432Z,22.50
2023-06-27T09:33:47.036Z,22.49
2023-06-27T09:36:18.166Z,22.45
2023-06-27T09:38:49.045Z,22.42
2023-06-27T09:41:18.430Z,22.45
2023-06-27T09:43:48.301Z,22.39
2023-06-27T09:46:15.308Z,22.52
2023-06-27T09:51:10.167Z,22.83
2023-06-27T09:53:37.272Z,22.91
2023-06-27T09:56:04.890Z,23.25
2023-06-27T09:58:33.314Z,23.67
2023-06-27T10:01:07.065Z,24.14
2023-06-27T10:03:34.958Z,24.47
2023-06-27T10:06:11.479Z,24.65
2023-06-27T10:08:39.467Z,24.49
2023-06-27T10:11:08.201Z,24.58
2023-06-27T10:13:36.936Z,24.71
2023-06-27T10:16:06.230Z,24.78
2023-06-27T10:18:33.673Z,24.90
2023-06-27T10:21:00.665Z,24.95
2023-06-27T10:23:28.031Z,25.02
2023-06-27T10:25:54.800Z,25.00
2023-06-27T10:28:22.074Z,24.88
2023-06-27T10:30:49.936Z,24.61
2023-06-27T10:33:20.612Z,24.42
2023-06-27T10:35:51.922Z,24.31
2023-06-27T10:38:20.294Z,24.27
2023-06-27T10:40:59.528Z,24.16
2023-06-27T10:43:41.098Z,24.13
2023-06-27T10:46:12.082Z,24.14
2023-06-27T10:48:57.614Z,24.20
2023-06-27T10:51:25.957Z,24.10
2023-06-27T10:54:14.238Z,23.99
2023-06-27T10:56:42.709Z,23.82
2023-06-27T10:59:11.060Z,23.77
2023-06-27T11:01:43.078Z,23.77
2023-06-27T11:04:27.136Z,23.72
2023-06-27T11:07:01.381Z,23.69
2023-06-27T11:09:32.378Z,23.51
2023-06-27T11:12:09.693Z,23.29
2023-06-27T11:14:40.700Z,23.03
2023-06-27T11:17:08.058Z,22.77
2023-06-27T11:19:35.726Z,22.61
2023-06-27T11:22:03.216Z,22.39
2023-06-27T11:24:33.075Z,22.21
2023-06-27T11:27:01.436Z,22.08
2023-06-27T11:29:31.180Z,22.01
2023-06-27T11:31:58.089Z,21.97
2023-06-27T11:34:25.275Z,21.82
2023-06-27T11:36:52.538Z,21.64
2023-06-27T11:39:19.732Z,21.54
2023-06-27T11:41:47.116Z,21.39
2023-06-27T11:44:19.471Z,21.26
2023-06-27T11:46:56.382Z,21.20
2023-06-27T11:49:27.031Z,21.07
2023-06-27T11:51:58.113Z,21.03
2023-06-27T11:54:25.206Z,21.03
2023-06-27T11:56:52.159Z,21.05
2023-06-27T11:59:30.879Z,21.02
2023-06-27T12:01:58.978Z,20.96
2023-06-27T12:04:25.846Z,20.99
2023-06-27T12:06:53.497Z,20.98
2023-06-27T12:09:21.302Z,21.05
2023-06-27T12:11:56.287Z,21.07
2023-06-27T12:14:23.710Z,21.09
2023-06-27T12:16:52.714Z,21.07
2023-06-27T12:19:20.580Z,21.07
2023-06-27T12:21:47.701Z,21.13
2023-06-27T12:24:15.187Z,21.22
2023-06-27T12:26:42.103Z,21.27
2023-06-27T12:29:09.490Z,21.37
2023-06-27T12:31:36.974Z,21.47
2023-06-27T12:34:04.579Z,21.57
2023-06-27T12:36:34.691Z,21.67
2023-06-27T12:39:01.886Z,21.74
2023-06-27T12:41:28.931Z,21.77
2023-06-27T12:43:55.792Z,21.85
2023-06-27T12:46:22.930Z,21.98
2023-06-27T12:48:50.139Z,22.05
2023-06-27T12:51:20.424Z,22.11
2023-06-27T12:53:48.356Z,22.13
2023-06-27T12:56:15.573Z,22.09
2023-06-27T12:58:43.999Z,22.08
2023-06-27T13:01:12.379Z,22.02
2023-06-27T13:03:39.560Z,22.05
2023-06-27T13:06:06.442Z,22.05
2023-06-27T13:08:33.637Z,22.06
2023-06-27T13:11:00.931Z,21.97
2023-06-27T13:13:28.701Z,21.82
2023-06-27T13:16:09.407Z,21.70
2023-06-27T13:18:41.742Z,21.63
2023-06-27T13:21:08.571Z,21.40
2023-06-27T13:23:36.140Z,21.32
2023-06-27T13:26:03.108Z,21.22
2023-06-27T13:28:30.566Z,21.20
2023-06-27T13:30:57.600Z,21.27
2023-06-27T13:33:25.412Z,21.30
2023-06-27T13:35:52.615Z,21.34
2023-06-27T13:38:19.646Z,21.36
2023-06-27T13:40:46.780Z,21.37
2023-06-27T13:43:13.802Z,21.34
2023-06-27T13:45:41.580Z,21.37
2023-06-27T13:48:08.560Z,21.37
2023-06-27T13:50:35.736Z,21.36
2023-06-27T13:53:02.652Z,21.46
2023-06-27T13:55:30.233Z,21.58
2023-06-27T13:57:57.068Z,21.68
2023-06-27T14:00:24.451Z,21.75
2023-06-27T14:02:51.906Z,21.77
2023-06-27T14:05:19.791Z,21.75
2023-06-27T14:07:47.049Z,21.90
2023-06-27T14:10:13.891Z,22.04
2023-06-27T14:12:41.298Z,22.19
2023-06-27T14:15:10.445Z,22.43
2023-06-27T14:17:37.452Z,22.52
2023-06-27T14:20:05.249Z,22.56
2023-06-27T14:22:32.671Z,22.55
2023-06-27T14:24:59.660Z,22.63
2023-06-27T14:27:26.656Z,22.69
2023-06-27T14:29:53.853Z,22.67
2023-06-27T14:32:20.769Z,22.61
2023-06-27T14:34:48.039Z,22.57
2023-06-27T14:37:15.876Z,22.52
2023-06-27T14:39:43.097Z,22.32
2023-06-27T14:42:10.324Z,22.15
2023-06-27T14:44:37.543Z,21.94
2023-06-27T14:47:06.157Z,21.84
2023-06-27T14:49:34.013Z,21.77
2023-06-27T14:52:01.238Z,21.78
2023-06-27T14:54:28.113Z,21.74
2023-06-27T14:56:55.277Z,21.58
2023-06-27T14:59:22.293Z,21.47
2023-06-27T15:01:49.580Z,21.39
2023-06-27T15:04:17.409Z,21.32
2023-06-27T15:06:44.540Z,21.22
2023-06-27T15:09:11.529Z,21.18
2023-06-27T15:11:38.492Z,21.18
2023-06-27T15:14:05.428Z,21.15
2023-06-27T15:16:32.382Z,21.12
2023-06-27T15:18:59.528Z,21.13
2023-06-27T15:21:26.436Z,21.19
2023-06-27T15:23:53.573Z,21.22
2023-06-27T15:26:20.460Z,21.23
2023-06-27T15:28:49.717Z,21.32
2023-06-27T15:31:18.061Z,21.32
2023-06-27T15:33:45.303Z,21.37
2023-06-27T15:36:15.391Z,21.36
2023-06-27T15:38:42.720Z,21.37
2023-06-27T15:41:10.010Z,21.33
2023-06-27T15:43:37.689Z,21.30
2023-06-27T15:46:04.659Z,21.30
2023-06-27T15:48:31.637Z,21.33
2023-06-27T15:50:59.439Z,21.39
2023-06-27T15:53:26.825Z,21.40
2023-06-27T15:55:53.915Z,21.42
2023-06-27T15:58:20.827Z,21.43
2023-06-27T16:00:47.805Z,21.39
2023-06-27T16:03:15.033Z,21.43
2023-06-27T16:05:42.227Z,21.40
2023-06-27T16:08:09.258Z,21.34
2023-06-27T16:10:36.136Z,21.29
2023-06-27T16:13:03.442Z,21.25
2023-06-27T16:15:30.696Z,21.18
2023-06-27T16:17:57.712Z,21.12
2023-06-27T16:20:25.293Z,21.05
2023-06-27T16:22:52.202Z,20.96
2023-06-27T16:25:19.118Z,20.94
2023-06-27T16:27:46.372Z,20.92
2023-06-27T16:30:13.555Z,20.92
2023-06-27T16:32:40.514Z,20.89
2023-06-27T16:35:08.164Z,20.89
2023-06-27T16:37:35.793Z,20.91
2023-06-27T16:40:02.966Z,20.85
2023-06-27T16:42:29.900Z,20.75
2023-06-27T16:44:57.295Z,20.75
2023-06-27T16:47:26.090Z,20.59
2023-06-27T16:49:53.183Z,20.48
2023-06-27T16:52:20.522Z,20.37
2023-06-27T16:54:48.558Z,20.31
2023-06-27T16:57:16.213Z,20.19
2023-06-27T16:59:43.097Z,20.09
2023-06-27T17:02:10.244Z,19.97
2023-06-27T17:04:37.661Z,19.93
2023-06-27T17:07:04.940Z,19.89
2023-06-27T17:09:31.839Z,19.89
2023-06-27T17:11:58.689Z,19.93
2023-06-27T17:14:25.657Z,19.92
2023-06-27T17:16:53.334Z,19.86
2023-06-27T17:19:20.209Z,19.79
2023-06-27T17:21:47.522Z,19.78
2023-06-27T17:24:14.614Z,19.71
2023-06-27T17:26:41.513Z,19.59
2023-06-27T17:29:08.645Z,19.57
2023-06-27T17:31:35.715Z,19.58
2023-06-27T17:34:02.988Z,19.57
2023-06-27T17:36:30.585Z,19.52
2023-06-27T17:38:58.082Z,19.54
2023-06-27T17:41:25.212Z,19.47
2023-06-27T17:43:52.150Z,19.45
2023-06-27T17:46:20.762Z,19.39
2023-06-27T17:48:47.902Z,19.31
2023-06-27T17:51:15.980Z,19.28
2023-06-27T17:53:42.671Z,19.18
2023-06-27T17:56:10.054Z,19.11
2023-06-27T17:58:36.987Z,18.97
2023-06-27T18:01:08.640Z,18.87
2023-06-27T18:03:39.135Z,18.80
2023-06-27T18:06:06.403Z,18.75
2023-06-27T18:08:33.812Z,18.62
2023-06-27T18:11:01.013Z,18.55
2023-06-27T18:13:28.930Z,18.49
2023-06-27T18:15:56.056Z,18.51
2023-06-27T18:18:24.480Z,18.51
2023-06-27T18:20:51.667Z,18.53
2023-06-27T18:23:18.753Z,18.46
2023-06-27T18:25:46.804Z,18.48
2023-06-27T18:28:13.849Z,18.42
2023-06-27T18:30:40.945Z,18.39
2023-06-27T18:33:10.914Z,18.37
2023-06-27T18:35:39.202Z,18.32
2023-06-27T18:38:07.393Z,18.25
2023-06-27T18:40:35.386Z,18.17
2023-06-27T18:43:02.299Z,18.08
2023-06-27T18:45:29.687Z,18.05
2023-06-27T18:47:56.762Z,18.02
2023-06-27T18:50:23.967Z,17.97
2023-06-27T18:52:51.876Z,17.94
2023-06-27T18:55:18.780Z,17.93
2023-06-27T18:57:46.158Z,17.93
2023-06-27T19:00:15.756Z,17.89
2023-06-27T19:02:42.722Z,17.80
2023-06-27T19:05:10.242Z,17.70
2023-06-27T19:07:37.332Z,17.63
2023-06-27T19:10:04.810Z,17.59
2023-06-27T19:12:31.669Z,17.59
2023-06-27T19:14:58.509Z,17.56
2023-06-27T19:17:25.400Z,17.57
2023-06-27T19:19:52.944Z,17.60
2023-06-27T19:22:20.962Z,17.57
2023-06-27T19:24:48.608Z,17.54
2023-06-27T19:27:16.323Z,17.50
2023-06-27T19:29:43.218Z,17.46
2023-06-27T19:32:10.547Z,17.40
2023-06-27T19:34:38.103Z,17.28
2023-06-27T19:37:05.142Z,17.23
2023-06-27T19:39:31.948Z,17.23
2023-06-27T19:41:58.834Z,17.21
2023-06-27T19:44:25.767Z,17.15
2023-06-27T19:46:52.623Z,17.11
2023-06-27T19:49:19.500Z,17.05
2023-06-27T19:51:46.301Z,17.01
2023-06-27T19:54:13.314Z,16.98
2023-06-27T19:56:41.737Z,16.96
2023-06-27T19:59:08.732Z,16.94
2023-06-27T20:01:35.899Z,16.89
2023-06-27T20:04:04.516Z,16.85
2023-06-27T20:06:31.672Z,16.83
2023-06-27T20:08:58.455Z,16.80
2023-06-27T20:11:25.322Z,16.75
2023-06-27T20:13:52.410Z,16.74
2023-06-27T20:16:20.028Z,16.68
2023-06-27T20:18:46.992Z,16.64
2023-06-27T20:21:14.261Z,16.63
2023-06-27T20:23:43.259Z,16.61
2023-06-27T20:26:12.508Z,16.57
2023-06-27T20:28:40.070Z,16.56
2023-06-27T20:31:07.762Z,16.52
2023-06-27T20:33:34.669Z,16.47
2023-06-27T20:36:01.706Z,16.49
2023-06-27T20:38:28.678Z,16.49
2023-06-27T20:40:55.517Z,16.46
2023-06-27T20:43:22.668Z,16.47
2023-06-27T20:45:49.566Z,16.49
2023-06-27T20:48:16.653Z,16.42
2023-06-27T20:50:43.747Z,16.42
2023-06-27T20:53:10.910Z,16.36
2023-06-27T20:55:37.810Z,16.33
2023-06-27T20:58:08.809Z,16.30
2023-06-27T21:00:39.506Z,16.29
2023-06-27T21:03:06.674Z,16.30
2023-06-27T21:05:33.562Z,16.30
2023-06-27T21:08:00.514Z,16.27
2023-06-27T21:10:27.412Z,16.30
2023-06-27T21:12:54.404Z,16.26
2023-06-27T21:15:21.399Z,16.25
2023-06-27T21:17:48.912Z,16.25
2023-06-27T21:20:17.288Z,16.22
2023-06-27T21:22:44.280Z,16.25
2023-06-27T21:25:11.345Z,16.22
2023-06-27T21:27:50.932Z,16.19
2023-06-27T21:30:18.763Z,16.20
2023-06-27T21:32:46.078Z,16.18
2023-06-27T21:35:13.092Z,16.15
2023-06-27T21:37:40.065Z,16.15
2023-06-27T21:40:07.715Z,16.12
2023-06-27T21:42:34.654Z,16.12
2023-06-27T21:45:01.791Z,16.05
2023-06-27T21:47:29.026Z,16.05
2023-06-27T21:49:59.230Z,16.01
2023-06-27T21:52:26.913Z,16.01
2023-06-27T21:54:54.106Z,16.01
2023-06-27T21:57:20.936Z,16.04
2023-06-27T21:59:47.931Z,16.04
2023-06-27T22:02:14.720Z,16.04
2023-06-27T22:04:41.911Z,16.04
2023-06-27T22:07:09.169Z,16.01
2023-06-27T22:09:36.146Z,16.02
2023-06-27T22:12:04.198Z,15.98
2023-06-27T22:14:31.216Z,16.01
2023-06-27T22:16:58.115Z,15.95
2023-06-27T22:19:25.083Z,15.91
2023-06-27T22:21:52.802Z,15.92
2023-06-27T22:24:20.355Z,15.91
2023-06-27T22:26:47.363Z,15.87
2023-06-27T22:29:14.683Z,15.87
2023-06-27T22:31:41.770Z,15.79
2023-06-27T22:34:08.910Z,15.82
2023-06-27T22:36:35.861Z,15.82
2023-06-27T22:39:02.977Z,15.78
2023-06-27T22:41:30.126Z,15.75
2023-06-27T22:43:57.018Z,15.75
2023-06-27T22:46:24.850Z,15.71
2023-06-27T22:48:52.211Z,15.70
2023-06-27T22:51:19.579Z,15.70
2023-06-27T22:53:46.415Z,15.70
2023-06-27T22:56:13.219Z,15.68
2023-06-27T22:58:41.038Z,15.70
2023-06-27T23:01:07.968Z,15.67
2023-06-27T23:03:35.030Z,15.62
2023-06-27T23:06:02.328Z,15.61
2023-06-27T23:08:29.281Z,15.61
2023-06-27T23:10:56.370Z,15.54
2023-06-27T23:13:23.274Z,15.51
2023-06-27T23:15:50.630Z,15.50
2023-06-27T23:18:20.397Z,15.47
2023-06-27T23:20:52.937Z,15.46
2023-06-27T23:23:19.804Z,15.44
2023-06-27T23:25:47.842Z,15.43
2023-06-27T23:28:15.799Z,15.40
2023-06-27T23:30:53.878Z,15.40
2023-06-27T23:33:24.030Z,15.37
2023-06-27T23:35:51.853Z,15.36
2023-06-27T23:38:19.603Z,15.34
2023-06-27T23:40:48.060Z,15.33
2023-06-27T23:43:14.923Z,15.30
2023-06-27T23:45:41.834Z,15.30
2023-06-27T23:48:08.733Z,15.29
2023-06-27T23:50:35.820Z,15.26
2023-06-27T23:53:02.652Z,15.22
2023-06-27T23:55:29.854Z,15.16
2023-06-27T23:57:57.077Z,15.19
